Great Falls, MT

6:24 PM MDT on May 22, 2015 (GMT -0600)
Great Falls South SIde | | Change Station
CLOSE
Current Station
Personal Weather Station
Location: Great Falls, MT
Elevation: 3399 ft
Nearby Weather Stations

Elev 3399 ft 47.50 °N, 111.27 °W | Updated 2 seconds ago

Mostly Cloudy
Mostly Cloudy
65.6 °F
Feels Like 65.6 °F
N
1.0
Wind Variable Wind from SE
Gusts 5.0 mph

Today
High -- | Low -- °F
--% Chance of Precip.
Yesterday
High -- | Low -- °F
Precip. -- in
5:40 AM 9:03 PM
Waxing Crescent, 25% visible
Pressure 29.91 in
Visibility 10.0 miles
Clouds Scattered Clouds 6000 ft
Mostly Cloudy 7500 ft
Dew Point 50 °F
Humidity 57%
Rainfall 0.02 in
Snow Depth Not available.
UV 2 out of 12
Pollen 8.40 out of 12
Air Quality Not available.
Flu Activity Sporadic
METAR KGTF 222353Z 09010KT 10SM SCT060 BKN075 19/06 A2992 RMK AO2 SLP127 T01940061 10217 20183 55003

More Conditions Fewer Conditions

Pressure 29.91 in
Visibility 10.0 miles
Clouds Scattered Clouds 6000 ft
Mostly Cloudy 7500 ft
Dew Point 50 °F
Humidity 57%
Rainfall 0.02 in
Snow Depth Not available.
UV 2 out of 12
Pollen 8.40 out of 12
Air Quality Not available.
Flu Activity Sporadic
METAR KGTF 222353Z 09010KT 10SM SCT060 BKN075 19/06 A2992 RMK AO2 SLP127 T01940061 10217 20183 55003

More Conditions Fewer Conditions

10-Day Weather Forecast

Almanac

Astronomy

May. 22, 2015 Rise Set
Actual Time
Civil Twilight
Nautical Twilight
Astronomical Twilight
Moon
Length of Visible Light
Length of Day
Tomorrow will be .
, % of the Moon is Illuminated

Today's Extremes

State Highs State Lows

Community

WunderPhotos

Upload Photos

1,823,342 photos uploaded!

WunderBlogs® & News

Nearby

Air Quality

  Air Quality AQ Index Pollutant
Not available.

Snow Depth

Station Depth Elevation

Earthquake Activity

City Distance Mag. Time & Date
Minimum magnitude displayed is 2.5.

Coastal Water Temperatures

Place Temperature

Stations

Nearby Weather Stations

Station Location Temp. Windchill Dew Point Humidity Wind Precip. Elev Updated Type